Time;durP1;ratioP1;P1;durP2;ratioP2;P2;SDS_P1;SDS_P2;PMS_P1;PMS_P2;Temp;Humidity;BMP_temperature;BMP_pressure;BME280_temperature;BME280_humidity;BME280_pressure;Samples;Min_cycle;Max_cycle;Signal;HPM_P1;HPM_P2
2021/10/25 00:02:02;;;;;;;;;0.00;0.00;;;;;;;;5082138;27;112336;-74
2021/10/25 00:04:28;;;;;;;;;0.25;0.25;;;;;;;;5086714;27;111925;-74
2021/10/25 00:06:53;;;;;;;;;2.00;2.00;;;;;;;;5081476;27;113519;-74
2021/10/25 00:09:18;;;;;;;;;1.00;0.00;;;;;;;;5082907;27;111887;-75
2021/10/25 00:11:44;;;;;;;;;2.50;1.00;;;;;;;;5082943;27;112684;-73
2021/10/25 00:14:10;;;;;;;;;1.00;1.00;;;;;;;;5081781;27;112341;-74
2021/10/25 00:16:36;;;;;;;;;0.25;0.25;;;;;;;;5082703;27;112053;-74
2021/10/25 00:19:01;;;;;;;;;0.25;0.25;;;;;;;;5083115;27;112353;-73
2021/10/25 00:21:26;;;;;;;;;0.00;0.00;;;;;;;;5081723;27;112278;-73
2021/10/25 00:23:52;;;;;;;;;0.33;0.00;;;;;;;;5082902;27;112413;-73
2021/10/25 00:26:17;;;;;;;;;0.75;0.00;;;;;;;;5085166;27;112376;-73
2021/10/25 00:28:42;;;;;;;;;;;;;;;;;;5082965;27;111838;-73
2021/10/25 00:31:07;;;;;;;;;0.00;0.00;;;;;;;;5083155;27;112251;-73
2021/10/25 00:33:33;;;;;;;;;0.00;0.00;;;;;;;;5081513;27;112516;-74
2021/10/25 00:35:58;;;;;;;;;0.00;0.00;;;;;;;;5082649;27;111974;-73
2021/10/25 00:38:23;;;;;;;;;1.00;1.00;;;;;;;;5082578;27;112260;-73
2021/10/25 00:40:49;;;;;;;;;0.00;0.00;;;;;;;;5081109;27;113300;-73
2021/10/25 00:43:14;;;;;;;;;0.00;0.00;;;;;;;;5082947;27;114408;-73
2021/10/25 00:45:39;;;;;;;;;0.00;0.00;;;;;;;;5082938;27;111984;-73
2021/10/25 00:48:05;;;;;;;;;0.50;0.50;;;;;;;;5083776;27;113697;-73
2021/10/25 00:50:30;;;;;;;;;;;;;;;;;;5082383;27;113502;-73
2021/10/25 00:52:55;;;;;;;;;;;;;;;;;;5081279;27;112277;-73
2021/10/25 00:55:20;;;;;;;;;;;;;;;;;;5081808;27;111731;-73
2021/10/25 00:57:45;;;;;;;;;;;;;;;;;;5075221;27;112223;-73
2021/10/25 01:00:11;;;;;;;;;1.00;0.00;;;;;;;;5081977;27;112942;-73
2021/10/25 01:02:37;;;;;;;;;1.00;0.00;;;;;;;;5082591;27;111875;-73
2021/10/25 01:05:03;;;;;;;;;1.00;1.00;;;;;;;;5082099;27;112022;-73
2021/10/25 01:07:28;;;;;;;;;0.00;0.00;;;;;;;;5081002;27;114944;-73
2021/10/25 01:09:54;;;;;;;;;0.00;0.00;;;;;;;;5086169;27;111813;-73
2021/10/25 01:12:20;;;;;;;;;1.00;1.00;;;;;;;;5081680;27;112651;-73
2021/10/25 01:14:45;;;;;;;;;1.00;1.00;;;;;;;;5082066;27;112055;-73
2021/10/25 01:17:10;;;;;;;;;0.00;0.00;;;;;;;;5081735;27;114428;-73
2021/10/25 01:19:36;;;;;;;;;;;;;;;;;;5080694;27;112518;-73
2021/10/25 01:22:01;;;;;;;;;7.00;1.00;;;;;;;;5082197;27;114927;-73
2021/10/25 01:24:26;;;;;;;;;;;;;;;;;;5081000;27;120035;-73
2021/10/25 01:26:51;;;;;;;;;0.00;0.00;;;;;;;;5077945;27;113774;-73
2021/10/25 01:29:17;;;;;;;;;;;;;;;;;;5081781;27;113879;-73
2021/10/25 01:31:42;;;;;;;;;0.00;0.00;;;;;;;;5084599;27;112479;-73
2021/10/25 01:34:07;;;;;;;;;0.00;0.00;;;;;;;;5081298;27;111844;-73
2021/10/25 01:36:32;;;;;;;;;2.00;0.00;;;;;;;;5080961;27;112137;-73
2021/10/25 01:38:58;;;;;;;;;2.00;1.00;;;;;;;;5081815;27;113018;-73
2021/10/25 01:41:23;;;;;;;;;1.00;1.00;;;;;;;;5086043;27;111958;-73
2021/10/25 01:43:48;;;;;;;;;1.00;0.00;;;;;;;;5085031;27;113214;-73
2021/10/25 01:46:13;;;;;;;;;;;;;;;;;;5079134;27;112903;-73
2021/10/25 01:48:39;;;;;;;;;1.00;1.00;;;;;;;;5084832;27;112367;-73
2021/10/25 01:51:04;;;;;;;;;1.00;1.00;;;;;;;;5088588;27;111846;-73
2021/10/25 01:53:30;;;;;;;;;0.00;0.00;;;;;;;;5085592;27;111709;-73
2021/10/25 01:55:59;;;;;;;;;2.00;0.00;;;;;;;;5085539;27;112076;-73
2021/10/25 01:58:25;;;;;;;;;0.00;0.00;;;;;;;;5083745;27;112569;-73
2021/10/25 02:00:50;;;;;;;;;0.00;0.00;;;;;;;;5085190;27;112569;-74
2021/10/25 02:03:16;;;;;;;;;0.00;0.00;;;;;;;;5085111;27;112282;-73
2021/10/25 02:05:41;;;;;;;;;1.00;0.00;;;;;;;;5084005;27;112271;-73
2021/10/25 02:08:07;;;;;;;;;0.00;0.00;;;;;;;;5084809;27;112109;-74
2021/10/25 02:10:33;;;;;;;;;1.00;1.00;;;;;;;;5084782;27;113039;-72
2021/10/25 02:12:58;;;;;;;;;0.00;0.00;;;;;;;;5088341;27;112921;-73
2021/10/25 02:15:24;;;;;;;;;0.00;0.00;;;;;;;;5085783;27;111752;-73
2021/10/25 02:17:49;;;;;;;;;0.00;0.00;;;;;;;;5083745;27;112367;-75
2021/10/25 02:20:15;;;;;;;;;0.00;0.00;;;;;;;;5085162;27;112171;-71
2021/10/25 02:22:40;;;;;;;;;0.50;0.00;;;;;;;;5084697;27;111914;-72
2021/10/25 02:25:06;;;;;;;;;0.50;0.50;;;;;;;;5083403;27;114175;-72
2021/10/25 02:27:31;;;;;;;;;1.00;1.00;;;;;;;;5084413;27;111843;-71
2021/10/25 02:29:56;;;;;;;;;0.00;0.00;;;;;;;;5084188;27;113584;-72
2021/10/25 02:32:22;;;;;;;;;0.00;0.00;;;;;;;;5083146;27;112332;-72
2021/10/25 02:34:47;;;;;;;;;0.25;0.25;;;;;;;;5088037;27;112087;-72
2021/10/25 02:37:13;;;;;;;;;4.00;1.00;;;;;;;;5083011;27;112379;-73
2021/10/25 02:39:39;;;;;;;;;1.00;1.00;;;;;;;;5085150;27;111964;-73
2021/10/25 02:42:04;;;;;;;;;1.00;1.00;;;;;;;;5084447;27;111998;-75
2021/10/25 02:44:29;;;;;;;;;1.00;1.00;;;;;;;;5083197;27;112878;-74
2021/10/25 02:46:55;;;;;;;;;1.00;1.00;;;;;;;;5084425;27;112035;-73
2021/10/25 02:49:21;;;;;;;;;0.50;0.50;;;;;;;;5083896;27;113244;-74
2021/10/25 02:51:46;;;;;;;;;0.00;0.00;;;;;;;;5083642;27;112380;-74
2021/10/25 02:54:12;;;;;;;;;1.00;1.00;;;;;;;;5084308;27;111863;-74
2021/10/25 02:56:37;;;;;;;;;1.33;1.00;;;;;;;;5086894;27;111996;-73
2021/10/25 02:59:08;;;;;;;;;2.50;1.00;;;;;;;;5084051;27;112124;-74
2021/10/25 03:01:33;;;;;;;;;0.00;0.00;;;;;;;;5084035;27;111910;-74
2021/10/25 03:03:59;;;;;;;;;0.50;0.00;;;;;;;;5083109;27;112425;-74
2021/10/25 03:06:24;;;;;;;;;2.25;1.00;;;;;;;;5083730;27;111763;-75
2021/10/25 03:08:49;;;;;;;;;0.00;0.00;;;;;;;;5084486;27;111920;-75
2021/10/25 03:11:14;;;;;;;;;2.00;1.00;;;;;;;;5083053;27;112301;-75
2021/10/25 03:13:40;;;;;;;;;0.00;0.00;;;;;;;;5084598;27;112098;-75
2021/10/25 03:16:05;;;;;;;;;2.50;0.00;;;;;;;;5082836;27;113451;-75
2021/10/25 03:18:31;;;;;;;;;1.00;1.00;;;;;;;;5086399;27;112266;-75
2021/10/25 03:20:56;;;;;;;;;2.00;1.00;;;;;;;;5082372;27;115429;-76
2021/10/25 03:23:23;;;;;;;;;0.00;0.00;;;;;;;;5082806;27;112855;-74
2021/10/25 03:25:49;;;;;;;;;0.25;0.25;;;;;;;;5083186;27;112845;-75
2021/10/25 03:28:14;;;;;;;;;0.00;0.00;;;;;;;;5084421;27;111850;-74
2021/10/25 03:30:39;;;;;;;;;0.00;0.00;;;;;;;;5083133;27;112401;-74
2021/10/25 03:33:05;;;;;;;;;0.00;0.00;;;;;;;;5084230;27;112379;-75
2021/10/25 03:35:30;;;;;;;;;0.00;0.00;;;;;;;;5083561;27;112181;-75
2021/10/25 03:37:57;;;;;;;;;0.25;0.00;;;;;;;;5082911;27;112632;-76
2021/10/25 03:40:22;;;;;;;;;1.00;1.00;;;;;;;;5087171;27;111963;-75
2021/10/25 03:42:51;;;;;;;;;0.00;0.00;;;;;;;;5082050;27;113672;-76
2021/10/25 03:48:15;;;;;;;;;3.50;1.00;;;;;;;;5083069;27;111960;-76
2021/10/25 03:50:42;;;;;;;;;1.00;1.00;;;;;;;;5080978;27;115942;-76
2021/10/25 04:27:50;;;;;;;;;0.00;0.00;;;;;;;;5082855;27;111661;-75
2021/10/25 04:30:18;;;;;;;;;0.00;0.00;;;;;;;;5082939;27;112157;-76
2021/10/25 04:32:43;;;;;;;;;1.75;1.00;;;;;;;;5080326;27;115220;-76
2021/10/25 04:35:09;;;;;;;;;1.00;1.00;;;;;;;;5083016;27;112613;-76
2021/10/25 04:37:35;;;;;;;;;1.00;1.00;;;;;;;;5082715;27;112955;-76
2021/10/25 04:40:00;;;;;;;;;0.00;0.00;;;;;;;;5081502;27;112815;-76
2021/10/25 04:42:25;;;;;;;;;0.00;0.00;;;;;;;;5080985;27;112127;-76
2021/10/25 04:44:52;;;;;;;;;0.25;0.25;;;;;;;;5083224;27;112207;-75
2021/10/25 04:47:17;;;;;;;;;2.00;0.00;;;;;;;;5084789;27;113470;-75
2021/10/25 04:49:43;;;;;;;;;;;;;;;;;;5082395;27;111853;-75
2021/10/25 04:52:09;;;;;;;;;0.00;0.00;;;;;;;;5081369;27;113978;-76
2021/10/25 04:54:35;;;;;;;;;1.00;1.00;;;;;;;;5082715;27;111854;-76
2021/10/25 04:57:01;;;;;;;;;1.25;0.00;;;;;;;;5082815;27;112859;-76
2021/10/25 04:59:26;;;;;;;;;0.00;0.00;;;;;;;;5081220;27;112316;-76
2021/10/25 05:01:52;;;;;;;;;0.00;0.00;;;;;;;;5082197;27;111784;-76
2021/10/25 05:04:17;;;;;;;;;0.50;0.50;;;;;;;;5082172;27;112212;-76
2021/10/25 05:06:43;;;;;;;;;1.00;1.00;;;;;;;;5080650;27;112544;-76
2021/10/25 05:09:08;;;;;;;;;0.25;0.25;;;;;;;;5086920;27;111694;-76
2021/10/25 05:11:34;;;;;;;;;1.00;1.00;;;;;;;;5080205;27;112288;-76
2021/10/25 05:13:59;;;;;;;;;1.00;1.00;;;;;;;;5082373;27;111988;-77
2021/10/25 05:16:25;;;;;;;;;0.00;0.00;;;;;;;;5081373;27;118351;-77
2021/10/25 05:18:50;;;;;;;;;1.00;0.00;;;;;;;;5081200;27;113190;-76
2021/10/25 05:21:15;;;;;;;;;0.00;0.00;;;;;;;;5081668;27;111927;-75
2021/10/25 05:23:41;;;;;;;;;1.00;1.00;;;;;;;;5082015;27;112660;-78
2021/10/25 05:26:06;;;;;;;;;0.00;0.00;;;;;;;;5080713;27;112930;-75
2021/10/25 05:28:32;;;;;;;;;1.00;1.00;;;;;;;;5081403;27;111704;-75
2021/10/25 05:30:57;;;;;;;;;;;;;;;;;;5082651;27;115256;-74
2021/10/25 05:33:22;;;;;;;;;1.00;1.00;;;;;;;;5082019;27;112184;-75
2021/10/25 05:35:47;;;;;;;;;;;;;;;;;;5079873;27;112341;-75
2021/10/25 05:38:13;;;;;;;;;;;;;;;;;;5080188;27;112161;-74
2021/10/25 05:40:39;;;;;;;;;1.00;1.00;;;;;;;;5077074;27;112144;-75
2021/10/25 05:43:04;;;;;;;;;5.50;1.50;;;;;;;;5061386;27;114972;-76
2021/10/25 05:45:30;;;;;;;;;2.00;2.00;;;;;;;;5060411;27;112509;-80
2021/10/25 05:47:55;;;;;;;;;3.50;3.50;;;;;;;;5061785;27;112001;-78
2021/10/25 05:50:20;;;;;;;;;0.50;0.50;;;;;;;;5071323;27;112969;-79
2021/10/25 05:52:46;;;;;;;;;0.50;0.00;;;;;;;;5085555;27;113338;-82
2021/10/25 05:55:12;;;;;;;;;2.00;0.50;;;;;;;;5080700;27;114901;-79
2021/10/25 05:57:37;;;;;;;;;0.00;0.00;;;;;;;;5080005;27;118193;-75
2021/10/25 06:00:05;;;;;;;;;4.00;1.00;;;;;;;;5081390;27;115062;-79
2021/10/25 06:02:37;;;;;;;;;4.33;4.33;;;;;;;;5081724;27;112983;-77
2021/10/25 06:05:04;;;;;;;;;;;;;;;;;;5079222;27;118236;-78
2021/10/25 06:07:30;;;;;;;;;1.00;1.00;;;;;;;;5079165;27;112303;-77
2021/10/25 06:09:56;;;;;;;;;1.00;1.00;;;;;;;;5081309;27;111936;-77
2021/10/25 06:12:22;;;;;;;;;2.00;1.25;;;;;;;;5085292;27;114034;-85
2021/10/25 06:14:48;;;;;;;;;1.50;1.50;;;;;;;;5081856;27;112238;-77
2021/10/25 06:19:45;;;;;;;;;0.00;0.00;;;;;;;;5078805;27;112097;-77
2021/10/25 06:22:10;;;;;;;;;0.67;0.67;;;;;;;;5081021;27;111992;-78
2021/10/25 06:24:35;;;;;;;;;;;;;;;;;;5080509;27;112509;-77
2021/10/25 06:27:01;;;;;;;;;;;;;;;;;;5080850;27;112111;-78
2021/10/25 06:29:26;;;;;;;;;0.00;0.00;;;;;;;;5083417;27;111935;-78
2021/10/25 06:31:51;;;;;;;;;2.00;1.00;;;;;;;;5080648;27;116577;-76
2021/10/25 06:34:22;;;;;;;;;1.00;1.00;;;;;;;;5044333;22;116610;-87
2021/10/25 06:36:49;;;;;;;;;2.00;2.00;;;;;;;;5020504;28;117109;-89
2021/10/25 06:39:22;;;;;;;;;2.00;0.00;;;;;;;;5023196;28;111840;-83
2021/10/25 06:41:47;;;;;;;;;9.00;9.00;;;;;;;;5004021;28;117487;-77
2021/10/25 06:44:12;;;;;;;;;10.50;10.50;;;;;;;;5021963;28;112359;-83
2021/10/25 06:46:42;;;;;;;;;2.00;2.00;;;;;;;;5020494;28;112130;-83
2021/10/25 06:49:07;;;;;;;;;2.00;2.00;;;;;;;;5022211;28;117725;-83
2021/10/25 06:51:33;;;;;;;;;;;;;;;;;;5016884;28;112802;-82
2021/10/25 06:53:59;;;;;;;;;;;;;;;;;;5019378;28;111881;-84
2021/10/25 06:56:24;;;;;;;;;;;;;;;;;;5021093;28;129317;-82
2021/10/25 06:58:50;;;;;;;;;;;;;;;;;;5018033;28;112277;-82
2021/10/25 07:01:16;;;;;;;;;;;;;;;;;;5016675;28;124589;-79
2021/10/25 07:03:41;;;;;;;;;3.50;2.00;;;;;;;;5020818;28;117361;-80
2021/10/25 07:06:11;;;;;;;;;1.00;1.00;;;;;;;;5022856;28;111981;-82
2021/10/25 07:08:36;;;;;;;;;;;;;;;;;;5020960;28;117585;-83
2021/10/25 07:11:02;;;;;;;;;2.00;2.00;;;;;;;;5022157;28;112691;-85
2021/10/25 07:13:27;;;;;;;;;2.00;2.00;;;;;;;;5004052;28;111849;-80
2021/10/25 07:16:02;;;;;;;;;1.75;1.00;;;;;;;;5003685;28;114535;-80
2021/10/25 07:18:37;;;;;;;;;;;;;;;;;;5021985;28;113851;-78
2021/10/25 07:21:30;;;;;;;;;;;;;;;;;;5020595;28;116459;-78
2021/10/25 08:10:03;;;;;;;;;5.50;3.75;;;;;;;;5119816;27;112081;-73
2021/10/25 08:12:30;;;;;;;;;5.50;3.00;;;;;;;;5120456;27;111761;-75
2021/10/25 08:15:03;;;;;;;;;4.50;2.75;;;;;;;;5112115;27;113632;-74
2021/10/25 08:17:44;;;;;;;;;3.50;3.50;;;;;;;;5115480;27;112059;-74
2021/10/25 08:20:10;;;;;;;;;2.75;2.75;;;;;;;;5093194;27;114133;-75
2021/10/25 08:22:37;;;;;;;;;3.00;3.00;;;;;;;;5111106;27;112009;-74
2021/10/25 08:25:03;;;;;;;;;9.75;8.00;;;;;;;;5098191;27;115358;-75
2021/10/25 08:27:29;;;;;;;;;4.00;3.00;;;;;;;;5119653;27;112386;-80
2021/10/25 08:29:54;;;;;;;;;7.75;6.00;;;;;;;;5120227;27;112321;-76
2021/10/25 08:40:31;;;;;;;;;8.50;8.00;;;;;;;;5123383;27;112131;-76
2021/10/25 08:42:56;;;;;;;;;6.75;6.75;;;;;;;;5119955;27;112713;-76
2021/10/25 08:45:33;;;;;;;;;9.00;6.00;;;;;;;;5119727;27;112290;-75
2021/10/25 08:47:59;;;;;;;;;4.00;4.00;;;;;;;;5119010;27;112555;-79
2021/10/25 08:50:26;;;;;;;;;4.00;4.00;;;;;;;;5120060;27;111741;-77
2021/10/25 08:52:51;;;;;;;;;8.00;7.25;;;;;;;;5119439;27;112852;-77
2021/10/25 08:55:18;;;;;;;;;3.00;3.00;;;;;;;;5117856;27;112343;-77
2021/10/25 08:57:43;;;;;;;;;3.75;2.75;;;;;;;;5100868;27;112359;-76
2021/10/25 09:00:11;;;;;;;;;2.50;1.75;;;;;;;;5120061;27;111942;-74
2021/10/25 09:02:38;;;;;;;;;5.50;3.00;;;;;;;;5102668;27;115456;-81
2021/10/25 09:05:04;;;;;;;;;1.00;1.00;;;;;;;;5109421;27;112222;-77
2021/10/25 09:07:30;;;;;;;;;1.00;0.00;;;;;;;;5087522;27;113512;-80
2021/10/25 09:09:56;;;;;;;;;4.00;4.00;;;;;;;;5084940;27;111896;-78
2021/10/25 09:12:21;;;;;;;;;2.00;2.00;;;;;;;;5085255;27;112947;-79
2021/10/25 09:14:46;;;;;;;;;2.25;0.25;;;;;;;;5083518;27;112396;-79
2021/10/25 09:17:12;;;;;;;;;3.25;2.50;;;;;;;;5085334;27;111854;-78
2021/10/25 09:19:38;;;;;;;;;4.75;4.75;;;;;;;;5066518;27;113628;-78
2021/10/25 09:22:15;;;;;;;;;3.00;2.75;;;;;;;;5065190;27;115730;-78
2021/10/25 09:24:49;;;;;;;;;1.50;1.50;;;;;;;;5045262;27;111917;-80
2021/10/25 09:27:14;;;;;;;;;15.75;14.75;;;;;;;;5061382;27;113292;-78
2021/10/25 09:29:41;;;;;;;;;1.00;1.00;;;;;;;;5063209;27;111801;-84
2021/10/25 09:32:14;;;;;;;;;1.00;1.00;;;;;;;;5063592;27;112319;-80
2021/10/25 09:34:51;;;;;;;;;2.00;2.00;;;;;;;;5062704;27;112423;-83
2021/10/25 09:37:22;;;;;;;;;3.25;3.00;;;;;;;;5063068;27;113073;-81
2021/10/25 09:39:53;;;;;;;;;11.00;8.75;;;;;;;;5064134;27;113185;-80
2021/10/25 09:45:34;;;;;;;;;4.00;2.75;;;;;;;;5063947;27;111776;-79
2021/10/25 09:50:57;;;;;;;;;5.25;5.25;;;;;;;;5063391;27;112392;-78
2021/10/25 09:53:29;;;;;;;;;7.25;5.00;;;;;;;;5063608;27;112971;-79
2021/10/25 09:55:55;;;;;;;;;2.00;2.00;;;;;;;;5061624;27;112428;-79
2021/10/25 09:58:22;;;;;;;;;4.00;4.00;;;;;;;;5063075;27;111890;-79
2021/10/25 10:00:48;;;;;;;;;4.00;4.00;;;;;;;;5063319;27;113289;-78
2021/10/25 10:03:13;;;;;;;;;1.75;1.50;;;;;;;;5043956;27;115898;-79
2021/10/25 10:05:41;;;;;;;;;2.50;2.00;;;;;;;;5063407;27;112361;-73
2021/10/25 10:08:07;;;;;;;;;1.50;1.25;;;;;;;;5063090;27;112154;-78
2021/10/25 10:10:32;;;;;;;;;1.00;1.00;;;;;;;;5062591;27;112070;-73
2021/10/25 10:13:00;;;;;;;;;1.00;1.00;;;;;;;;5063423;27;112253;-72
2021/10/25 10:15:27;;;;;;;;;4.75;2.00;;;;;;;;5062000;27;112424;-74
2021/10/25 10:17:56;;;;;;;;;2.00;2.00;;;;;;;;5061874;27;112227;-73
2021/10/25 10:20:26;;;;;;;;;1.00;1.00;;;;;;;;5062365;27;112545;-74
2021/10/25 10:22:53;;;;;;;;;1.75;1.25;;;;;;;;5061478;27;112433;-75
2021/10/25 10:25:29;;;;;;;;;9.75;7.00;;;;;;;;5062974;27;111745;-72
2021/10/25 10:28:09;;;;;;;;;1.00;1.00;;;;;;;;5050432;27;111860;-72
2021/10/25 10:30:47;;;;;;;;;12.50;11.25;;;;;;;;5053108;27;113410;-73
2021/10/25 10:33:13;;;;;;;;;1.75;1.25;;;;;;;;5049160;27;112269;-72
2021/10/25 10:35:43;;;;;;;;;1.25;1.00;;;;;;;;5049326;27;112581;-73
2021/10/25 10:38:09;;;;;;;;;2.75;2.00;;;;;;;;5049187;27;111861;-73
2021/10/25 10:40:38;;;;;;;;;3.75;3.00;;;;;;;;5032531;27;112901;-73
2021/10/25 10:43:06;;;;;;;;;1.00;1.00;;;;;;;;5032367;27;112786;-73
2021/10/25 10:45:32;;;;;;;;;9.50;6.25;;;;;;;;5062358;27;111733;-87
2021/10/25 10:47:58;;;;;;;;;1.00;1.00;;;;;;;;5062543;27;112017;-74
2021/10/25 10:50:29;;;;;;;;;1.50;1.00;;;;;;;;5041023;27;115406;-72
2021/10/25 10:52:59;;;;;;;;;2.25;1.00;;;;;;;;5066419;27;111886;-72
2021/10/25 10:55:33;;;;;;;;;3.00;1.00;;;;;;;;5060896;27;113682;-72
2021/10/25 10:58:12;;;;;;;;;2.00;2.00;;;;;;;;5060335;27;112419;-72
2021/10/25 11:00:39;;;;;;;;;2.50;1.25;;;;;;;;5061931;27;111912;-72
2021/10/25 11:03:05;;;;;;;;;1.75;1.75;;;;;;;;5056015;27;112781;-73
2021/10/25 11:05:36;;;;;;;;;1.00;1.00;;;;;;;;5043522;27;112416;-73
2021/10/25 11:08:08;;;;;;;;;2.00;1.00;;;;;;;;5053308;27;111970;-73
2021/10/25 11:10:34;;;;;;;;;2.25;2.00;;;;;;;;5028694;27;115445;-73
2021/10/25 11:13:03;;;;;;;;;2.50;2.00;;;;;;;;5050872;27;111878;-74
2021/10/25 11:15:36;;;;;;;;;0.00;0.00;;;;;;;;5051628;27;113102;-74
2021/10/25 11:18:02;;;;;;;;;3.25;1.00;;;;;;;;5050027;27;112152;-74
2021/10/25 11:20:28;;;;;;;;;2.00;2.00;;;;;;;;5051182;27;112886;-74
2021/10/25 11:23:00;;;;;;;;;4.25;3.00;;;;;;;;5040118;27;112400;-73
2021/10/25 11:25:25;;;;;;;;;1.75;1.75;;;;;;;;5041301;27;112124;-74
2021/10/25 11:27:53;;;;;;;;;1.00;1.00;;;;;;;;5041555;27;113262;-89
2021/10/25 11:30:18;;;;;;;;;2.00;1.00;;;;;;;;5040297;27;112607;-74
2021/10/25 11:32:45;;;;;;;;;1.00;1.00;;;;;;;;5041318;27;112351;-74
2021/10/25 11:35:13;;;;;;;;;1.25;0.75;;;;;;;;5040928;27;112246;-74
2021/10/25 11:37:41;;;;;;;;;2.75;1.50;;;;;;;;5043182;27;112503;-76
2021/10/25 11:40:08;;;;;;;;;3.25;2.25;;;;;;;;5040288;27;111936;-76
2021/10/25 11:42:33;;;;;;;;;6.50;4.00;;;;;;;;5040724;27;114028;-89
2021/10/25 11:45:00;;;;;;;;;2.00;2.00;;;;;;;;5041835;27;112409;-89
2021/10/25 11:47:30;;;;;;;;;1.00;1.00;;;;;;;;5043198;27;112515;-89
2021/10/25 11:49:59;;;;;;;;;3.00;3.00;;;;;;;;5041140;27;112536;-89
2021/10/25 11:52:24;;;;;;;;;3.00;2.25;;;;;;;;5041754;27;111932;-88
2021/10/25 11:54:51;;;;;;;;;1.00;1.00;;;;;;;;5041320;27;113812;-88
2021/10/25 11:57:17;;;;;;;;;1.00;1.00;;;;;;;;5042173;27;112542;-88
2021/10/25 11:59:42;;;;;;;;;2.25;1.00;;;;;;;;5047126;27;112035;-89
2021/10/25 12:02:10;;;;;;;;;4.00;1.00;;;;;;;;5041475;27;112683;-89
2021/10/25 12:04:44;;;;;;;;;1.50;0.25;;;;;;;;5041756;27;111826;-84
2021/10/25 12:07:10;;;;;;;;;1.00;0.00;;;;;;;;5040823;27;112015;-72
2021/10/25 12:09:35;;;;;;;;;2.00;2.00;;;;;;;;5039204;27;112312;-77
2021/10/25 12:12:07;;;;;;;;;1.00;1.00;;;;;;;;5041632;27;111848;-76
2021/10/25 12:14:36;;;;;;;;;2.00;2.00;;;;;;;;5060871;27;112353;-79
2021/10/25 12:17:02;;;;;;;;;1.50;1.50;;;;;;;;5001296;27;114194;-79
2021/10/25 12:24:11;;;;;;;;;2.00;2.00;;;;;;;;5141231;27;111957;-72
2021/10/25 12:26:37;;;;;;;;;1.75;1.75;;;;;;;;5100110;27;112576;-72
2021/10/25 12:29:13;;;;;;;;;0.75;0.25;;;;;;;;5120289;27;111807;-74
2021/10/25 12:31:38;;;;;;;;;1.75;1.25;;;;;;;;5119210;27;112183;-75
2021/10/25 12:34:04;;;;;;;;;2.00;2.00;;;;;;;;5119020;27;112618;-74
2021/10/25 12:36:33;;;;;;;;;2.00;2.00;;;;;;;;5120164;27;112194;-71
2021/10/25 12:38:59;;;;;;;;;1.00;1.00;;;;;;;;5119282;27;112159;-71
2021/10/25 12:41:24;;;;;;;;;1.50;1.50;;;;;;;;5100095;27;113849;-78
2021/10/25 12:43:54;;;;;;;;;2.00;2.00;;;;;;;;5123868;27;112662;-71
2021/10/25 12:46:22;;;;;;;;;2.00;1.00;;;;;;;;5119374;27;112372;-71
2021/10/25 12:48:52;;;;;;;;;2.00;1.00;;;;;;;;5120636;27;112753;-71
2021/10/25 12:51:22;;;;;;;;;2.00;2.00;;;;;;;;5120871;27;112064;-69
2021/10/25 12:53:50;;;;;;;;;3.25;1.00;;;;;;;;5119208;27;113509;-74
2021/10/25 12:56:25;;;;;;;;;0.75;0.75;;;;;;;;5097188;27;112381;-74
2021/10/25 12:59:19;;;;;;;;;3.50;2.25;;;;;;;;5119967;27;111961;-73
2021/10/25 13:01:57;;;;;;;;;2.00;2.00;;;;;;;;5113880;27;113760;-70
2021/10/25 13:04:23;;;;;;;;;1.00;1.00;;;;;;;;5113982;27;112244;-73
2021/10/25 13:06:49;;;;;;;;;1.75;1.75;;;;;;;;5111027;27;111762;-69
2021/10/25 13:09:14;;;;;;;;;2.75;2.00;;;;;;;;5098666;27;112397;-72
2021/10/25 13:11:40;;;;;;;;;2.75;2.00;;;;;;;;5098565;27;111938;-71
2021/10/25 13:14:08;;;;;;;;;1.50;1.50;;;;;;;;5097394;27;113525;-78
2021/10/25 13:16:42;;;;;;;;;1.00;1.00;;;;;;;;5098902;27;111868;-69
2021/10/25 13:19:08;;;;;;;;;3.00;3.00;;;;;;;;5080475;27;114800;-73
2021/10/25 13:21:34;;;;;;;;;2.25;1.00;;;;;;;;5078896;27;113214;-71
2021/10/25 13:23:59;;;;;;;;;3.00;2.50;;;;;;;;5098154;27;112024;-71
2021/10/25 13:26:26;;;;;;;;;3.00;2.25;;;;;;;;5098864;27;112129;-70
2021/10/25 13:28:51;;;;;;;;;2.00;1.25;;;;;;;;5101886;27;112525;-72
2021/10/25 13:31:17;;;;;;;;;2.00;2.00;;;;;;;;5113531;27;112827;-67
2021/10/25 13:33:43;;;;;;;;;2.00;2.00;;;;;;;;5114970;27;112371;-67
2021/10/25 13:36:08;;;;;;;;;2.00;2.00;;;;;;;;5104984;27;112357;-66
2021/10/25 13:38:34;;;;;;;;;2.25;2.25;;;;;;;;5104912;27;113061;-68
2021/10/25 13:41:01;;;;;;;;;1.75;0.00;;;;;;;;5103975;27;112328;-80
2021/10/25 13:43:26;;;;;;;;;4.00;2.75;;;;;;;;5105847;27;112037;-81
2021/10/25 13:45:51;;;;;;;;;3.00;3.00;;;;;;;;5105873;27;111787;-72
2021/10/25 13:48:17;;;;;;;;;3.75;3.00;;;;;;;;5104783;27;113825;-72
2021/10/25 13:50:42;;;;;;;;;2.75;2.75;;;;;;;;5109181;27;112538;-75
2021/10/25 13:53:09;;;;;;;;;2.50;2.50;;;;;;;;5104478;27;112974;-80
2021/10/25 13:55:35;;;;;;;;;2.00;2.00;;;;;;;;5105586;27;112273;-82
2021/10/25 13:58:00;;;;;;;;;4.50;3.00;;;;;;;;5105463;27;112618;-73
2021/10/25 14:00:26;;;;;;;;;3.00;3.00;;;;;;;;5104351;27;113030;-75
2021/10/25 14:02:56;;;;;;;;;4.00;4.00;;;;;;;;5105855;27;111943;-85
2021/10/25 14:05:21;;;;;;;;;5.00;2.00;;;;;;;;5105545;27;111916;-73
2021/10/25 14:07:47;;;;;;;;;2.75;2.00;;;;;;;;5104369;27;114072;-74
2021/10/25 14:10:21;;;;;;;;;3.00;3.00;;;;;;;;5104951;27;112388;-75
2021/10/25 14:12:47;;;;;;;;;3.00;2.00;;;;;;;;5108529;27;112016;-82
2021/10/25 14:15:32;;;;;;;;;1.25;1.25;;;;;;;;5105378;27;112035;-75
2021/10/25 14:17:58;;;;;;;;;4.00;4.00;;;;;;;;5105309;27;112314;-77
2021/10/25 14:20:26;;;;;;;;;4.50;3.25;;;;;;;;5104522;27;112092;-94
2021/10/25 14:22:54;;;;;;;;;5.25;3.75;;;;;;;;5084143;27;111963;-75
2021/10/25 14:25:19;;;;;;;;;3.75;3.75;;;;;;;;5084524;27;112316;-77
2021/10/25 14:27:45;;;;;;;;;4.75;3.25;;;;;;;;5101859;27;113131;-83
2021/10/25 14:30:10;;;;;;;;;4.75;3.00;;;;;;;;5085502;27;112470;-73
2021/10/25 14:32:36;;;;;;;;;2.00;2.00;;;;;;;;5086058;27;112340;-83
2021/10/25 14:35:03;;;;;;;;;4.00;3.00;;;;;;;;5104867;27;111839;-78
2021/10/25 14:37:32;;;;;;;;;3.00;3.00;;;;;;;;5104982;27;113435;-77
2021/10/25 14:39:57;;;;;;;;;4.00;3.25;;;;;;;;5103773;27;112707;-90
2021/10/25 14:42:31;;;;;;;;;3.75;3.00;;;;;;;;5105276;27;112122;-80
2021/10/25 14:55:41;;;;;;;;;3.75;3.75;;;;;;;;5106038;27;112268;-75
2021/10/25 14:58:06;;;;;;;;;4.50;4.50;;;;;;;;5103340;27;112902;-86
2021/10/25 15:00:32;;;;;;;;;6.00;4.75;;;;;;;;5100631;27;112414;-78
2021/10/25 15:02:57;;;;;;;;;5.25;4.00;;;;;;;;5102584;27;113486;-78
2021/10/25 15:05:23;;;;;;;;;3.00;3.00;;;;;;;;5101412;27;112516;-77
2021/10/25 15:07:48;;;;;;;;;5.00;3.00;;;;;;;;5100693;27;112302;-77
2021/10/25 15:10:13;;;;;;;;;2.75;2.75;;;;;;;;5083015;27;112389;-77
2021/10/25 15:12:39;;;;;;;;;1.50;1.50;;;;;;;;5102391;27;111857;-75
2021/10/25 15:15:06;;;;;;;;;2.00;2.00;;;;;;;;5101747;27;113491;-77
2021/10/25 15:17:31;;;;;;;;;4.00;4.00;;;;;;;;5106506;27;112010;-75
2021/10/25 15:19:56;;;;;;;;;5.00;4.00;;;;;;;;5099471;27;114824;-75
2021/10/25 15:22:22;;;;;;;;;4.00;2.00;;;;;;;;5103450;27;111958;-86
2021/10/25 15:24:53;;;;;;;;;5.00;4.00;;;;;;;;5084476;27;115253;-78
2021/10/25 15:27:19;;;;;;;;;3.50;3.50;;;;;;;;5093208;27;113212;-77
2021/10/25 15:29:46;;;;;;;;;5.25;3.50;;;;;;;;5102420;27;112007;-76
2021/10/25 15:32:12;;;;;;;;;2.00;2.00;;;;;;;;5102344;27;113362;-77
2021/10/25 15:34:39;;;;;;;;;2.50;2.50;;;;;;;;5096315;27;113438;-76
2021/10/25 15:37:05;;;;;;;;;5.75;4.00;;;;;;;;5099145;27;111661;-76
2021/10/25 15:39:30;;;;;;;;;3.50;3.50;;;;;;;;5104824;27;112882;-73
2021/10/25 15:41:56;;;;;;;;;6.00;3.00;;;;;;;;5100613;27;112056;-73
2021/10/25 15:44:21;;;;;;;;;5.75;2.00;;;;;;;;5101465;27;113078;-73
2021/10/25 15:46:47;;;;;;;;;5.00;2.25;;;;;;;;5092138;27;113828;-73
2021/10/25 15:49:12;;;;;;;;;3.00;3.00;;;;;;;;5100930;27;112182;-73
2021/10/25 15:51:37;;;;;;;;;2.50;2.00;;;;;;;;5101433;27;112190;-71
2021/10/25 15:54:03;;;;;;;;;5.50;2.00;;;;;;;;5091719;27;113557;-72
2021/10/25 15:56:29;;;;;;;;;6.00;2.50;;;;;;;;5099241;27;112022;-72
2021/10/25 15:58:54;;;;;;;;;2.25;2.00;;;;;;;;5101662;27;111801;-70
2021/10/25 16:01:20;;;;;;;;;6.25;3.00;;;;;;;;5104428;27;112972;-70
2021/10/25 16:03:45;;;;;;;;;3.00;3.00;;;;;;;;5101572;27;111832;-72
2021/10/25 16:06:11;;;;;;;;;2.50;2.50;;;;;;;;5100600;27;112477;-69
2021/10/25 16:08:36;;;;;;;;;5.25;4.00;;;;;;;;5102434;27;112635;-71
2021/10/25 16:11:02;;;;;;;;;4.00;2.75;;;;;;;;5102262;27;112721;-69
2021/10/25 16:13:28;;;;;;;;;5.00;5.00;;;;;;;;5097794;27;113665;-69
2021/10/25 16:15:53;;;;;;;;;4.25;2.25;;;;;;;;5101819;27;111812;-73
2021/10/25 16:18:19;;;;;;;;;6.00;3.00;;;;;;;;5082862;27;114976;-73
2021/10/25 16:20:44;;;;;;;;;5.75;5.00;;;;;;;;5100692;27;112312;-73
2021/10/25 16:23:10;;;;;;;;;6.00;3.50;;;;;;;;5106055;27;111921;-73
2021/10/25 16:25:35;;;;;;;;;6.00;3.00;;;;;;;;5099552;27;112427;-75
2021/10/25 16:28:01;;;;;;;;;5.75;4.50;;;;;;;;5099498;27;111816;-77
2021/10/25 16:30:26;;;;;;;;;5.50;5.00;;;;;;;;5101470;27;112274;-72